RT @NWS_BaltWash: The Winter Weather Advisory (for freezing rain) has been expanded across northern Maryland and the Northern Virginia Blue Ridge. Please see the graphic for details. Rain will overspread the rest of Maryland, northern-central Virginia, eastern WV and the District this evening. https://t.co/IpEl9Crc0K



from Twitter https://twitter.com/midatlanticwx


RT @NWS_BaltWash: A Winter Weather Advisory has been issued for portions of the Potomac Highlands tonight through Sunday morning. See the graphic for further details. https://t.co/QUktEk4Hcd



from Twitter https://twitter.com/midatlanticwx


RT @NWSEastern: Wintry weather will produce some difficult travel conditions across parts of the Eastern US Sunday & Monday. The big storm that moved onto the west Coast last Tue will reach the Eastern US this weekend, redeveloping off the Delmarva coast Sun evening & moving northeast on Monday. https://t.co/TqhkWvBNSu



from Twitter https://twitter.com/midatlanticwx


RT @NWS_BaltWash: A Winter Storm Watch has been issued for portions of Maryland and West Virginia, where significant ice accumulations are possible Saturday night. Lighter ice accumulations are possible further south and east, where Winter Weather Advisories may be required. https://t.co/CJ5z7ZUJwu



from Twitter https://twitter.com/midatlanticwx


RT @iembot_lwx: GRANT_COUNTY_AIRPORT,WV (W99) ASOS reports gust of 50 knots (57.5 mph) from WNW @ 0855Z — KW99 280855Z AUTO 29029G50KT 10SM SCT043 06/M02 A2997 RMK AO2 P0007 60025 T00561025



from Twitter https://twitter.com/midatlanticwx


RT @iembot_lwx: GRANT_COUNTY_AIRPORT,WV (W99) ASOS reports gust of 52 knots (59.8 mph) from WNW @ 0655Z — KW99 280655Z AUTO 29029G52KT 10SM SCT047 07/M03 A2992 RMK AO2 P0004 T00661028



from Twitter https://twitter.com/midatlanticwx


RT @NWS_BaltWash: Here are some of the wind gust reports received thus far (https://t.co/GPo9lERqCl). Strong winds will continue through Thanksgiving Day. More information at https://t.co/t54l4ELo2o. https://t.co/AjkTrxgvHN



from Twitter https://twitter.com/midatlanticwx


RT @pulte: I’ll give $11,700 to someone random who retweets this and is a follower of https://t.co/2EPMaxiXcX because it’s Thanksgiving ? (must be following me so I can dm you)



from Twitter https://twitter.com/midatlanticwx


RT @NWSCharlestonWV: OTD: The “Great Appalachian Storm” of November 23-29, 1950 dumped 1 to as much as 5′ of #snow over the area as temps plummeted into the single digits! Read more at: https://t.co/hsnTGD6J50 #wvwx #kywx #ohwx #vawx https://t.co/Z2kFQjvhJo



from Twitter https://twitter.com/midatlanticwx